createdAt,value
2018-03-27T00:00:35.202Z,93.56
2018-03-27T00:01:35.021Z,93.27
2018-03-27T00:02:34.998Z,93.56
2018-03-27T00:03:34.884Z,93.84
2018-03-27T00:04:34.803Z,93.46
2018-03-27T00:05:34.686Z,93.75
2018-03-27T00:06:34.719Z,93.46
2018-03-27T00:07:34.528Z,93.46
2018-03-27T00:08:34.561Z,93.65
2018-03-27T00:09:34.362Z,93.65
2018-03-27T00:10:34.336Z,93.56
2018-03-27T00:11:34.203Z,93.84
2018-03-27T00:12:34.248Z,93.46
2018-03-27T00:13:34.034Z,93.65
2018-03-27T00:14:34.087Z,93.84
2018-03-27T00:15:33.879Z,94.03
2018-03-27T00:16:33.861Z,94.32
2018-03-27T00:17:33.710Z,93.94
2018-03-27T00:18:33.700Z,94.32
2018-03-27T00:19:33.565Z,94.51
2018-03-27T00:20:33.583Z,93.94
2018-03-27T00:21:33.418Z,94.42
2018-03-27T00:22:33.388Z,94.79
2018-03-27T00:23:33.230Z,94.13
2018-03-27T00:24:33.217Z,94.32
2018-03-27T00:25:33.100Z,94.65
2018-03-27T00:26:33.119Z,94.60
2018-03-27T00:27:32.910Z,94.65
2018-03-27T00:28:32.927Z,94.93
2018-03-27T00:29:32.758Z,94.65
2018-03-27T00:30:32.728Z,95.41
2018-03-27T00:31:32.581Z,95.31
2018-03-27T00:32:32.532Z,95.31
2018-03-27T00:33:32.412Z,95.22
2018-03-27T00:34:32.482Z,95.31
2018-03-27T00:35:32.259Z,95.12
2018-03-27T00:36:32.246Z,95.51
2018-03-27T00:37:32.092Z,95.79
2018-03-27T00:38:32.062Z,95.98
2018-03-27T00:39:31.944Z,94.93
2018-03-27T00:40:31.972Z,94.93
2018-03-27T00:41:31.779Z,95.12
2018-03-27T00:42:31.775Z,95.51
2018-03-27T00:43:31.601Z,95.12
2018-03-27T00:44:31.617Z,95.22
2018-03-27T00:45:31.488Z,95.22
2018-03-27T00:46:31.497Z,94.93
2018-03-27T00:47:31.284Z,95.70
2018-03-27T00:48:31.304Z,95.89
2018-03-27T00:49:31.120Z,95.70
2018-03-27T00:50:31.156Z,95.51
2018-03-27T00:51:30.952Z,95.60
2018-03-27T00:52:30.931Z,95.60
2018-03-27T00:53:30.794Z,95.51
2018-03-27T00:54:30.834Z,95.98
2018-03-27T00:55:30.665Z,95.79
2018-03-27T00:56:30.642Z,95.60
2018-03-27T00:57:30.494Z,95.51
2018-03-27T00:58:30.556Z,95.89
2018-03-27T00:59:30.309Z,96.45
2018-03-27T01:00:30.293Z,96.26
2018-03-27T01:01:30.159Z,95.79
2018-03-27T01:02:30.166Z,95.51
2018-03-27T01:03:29.983Z,95.51
2018-03-27T01:04:29.983Z,95.79
2018-03-27T01:05:29.847Z,95.60
2018-03-27T01:06:29.790Z,95.31
2018-03-27T01:07:29.663Z,95.31
2018-03-27T01:08:29.694Z,96.17
2018-03-27T01:09:29.498Z,95.79
2018-03-27T01:10:29.536Z,96.45
2018-03-27T01:11:29.352Z,96.26
2018-03-27T01:12:29.313Z,96.45
2018-03-27T01:13:29.178Z,96.69
2018-03-27T01:14:29.116Z,96.12
2018-03-27T01:15:29.008Z,96.26
2018-03-27T01:16:29.057Z,97.07
2018-03-27T01:17:28.841Z,96.97
2018-03-27T01:18:28.851Z,96.59
2018-03-27T01:19:28.687Z,96.93
2018-03-27T01:20:28.689Z,96.41
2018-03-27T01:21:28.682Z,97.07
2018-03-27T01:22:28.557Z,96.97
2018-03-27T01:23:28.354Z,96.69
2018-03-27T01:24:28.382Z,96.59
2018-03-27T01:25:28.190Z,96.69
2018-03-27T01:26:28.204Z,97.07
2018-03-27T01:27:28.029Z,96.88
2018-03-27T01:28:27.982Z,97.36
2018-03-27T01:29:27.861Z,97.45
2018-03-27T01:30:27.894Z,97.55
2018-03-27T01:31:27.724Z,97.07
2018-03-27T01:32:27.702Z,97.64
2018-03-27T01:33:27.539Z,97.17
2018-03-27T01:34:27.510Z,97.45
2018-03-27T01:35:27.376Z,97.64
2018-03-27T01:36:27.350Z,97.64
2018-03-27T01:37:27.243Z,97.45
2018-03-27T01:38:27.537Z,97.26
2018-03-27T01:39:27.057Z,97.64
2018-03-27T01:42:09.182Z,98.11
2018-03-27T01:43:09.145Z,98.11
2018-03-27T01:44:09.007Z,98.02
2018-03-27T01:45:09.051Z,97.83
2018-03-27T01:46:08.843Z,97.45
2018-03-27T01:47:08.895Z,97.36
2018-03-27T01:48:08.731Z,97.83
2018-03-27T01:49:08.688Z,97.74
2018-03-27T01:50:08.525Z,97.17
2018-03-27T01:51:08.555Z,98.40
2018-03-27T01:52:08.377Z,98.49
2018-03-27T01:53:08.391Z,97.74
2018-03-27T01:54:08.194Z,97.92
2018-03-27T01:55:08.207Z,98.21
2018-03-27T01:56:08.024Z,98.21
2018-03-27T01:57:08.056Z,98.40
2018-03-27T01:58:07.888Z,98.11
2018-03-27T01:59:07.956Z,97.92
2018-03-27T02:00:07.701Z,98.49
2018-03-27T02:01:07.720Z,98.49
2018-03-27T02:02:07.548Z,98.49
2018-03-27T02:03:07.532Z,98.40
2018-03-27T02:04:07.377Z,98.30
2018-03-27T02:05:07.348Z,98.59
2018-03-27T02:06:07.212Z,98.49
2018-03-27T02:07:07.302Z,98.21
2018-03-27T02:08:07.068Z,98.11
2018-03-27T02:09:07.058Z,98.21
2018-03-27T02:10:06.886Z,98.54
2018-03-27T02:11:06.867Z,98.25
2018-03-27T02:12:06.718Z,98.16
2018-03-27T02:13:06.710Z,98.40
2018-03-27T02:14:06.566Z,98.21
2018-03-27T02:15:06.579Z,98.02
2018-03-27T02:16:06.392Z,98.59
2018-03-27T02:17:06.393Z,97.74
2018-03-27T02:18:06.287Z,97.64
2018-03-27T02:19:06.204Z,97.55
2018-03-27T02:20:06.074Z,97.45
2018-03-27T02:21:06.110Z,97.26
2018-03-27T02:22:05.904Z,97.26
2018-03-27T02:23:05.957Z,97.36
2018-03-27T02:24:05.753Z,97.36
2018-03-27T02:25:05.728Z,98.11
2018-03-27T02:26:05.585Z,97.45
2018-03-27T02:27:05.557Z,97.45
2018-03-27T02:28:05.416Z,97.45
2018-03-27T02:29:05.483Z,97.55
2018-03-27T02:30:05.254Z,97.36
2018-03-27T02:31:05.259Z,97.45
2018-03-27T02:32:05.088Z,97.26
2018-03-27T02:33:05.103Z,97.83
2018-03-27T02:34:04.939Z,97.26
2018-03-27T02:35:04.985Z,97.36
2018-03-27T02:36:04.764Z,97.45
2018-03-27T02:37:04.787Z,97.88
2018-03-27T02:38:04.623Z,98.44
2018-03-27T02:39:04.647Z,98.16
2018-03-27T02:40:04.433Z,98.82
2018-03-27T02:41:04.403Z,98.35
2018-03-27T02:42:04.283Z,98.35
2018-03-27T02:43:04.311Z,99.30
2018-03-27T02:44:04.121Z,99.30
2018-03-27T02:45:04.121Z,99.58
2018-03-27T02:46:03.940Z,99.68
2018-03-27T02:47:03.928Z,99.11
2018-03-27T02:48:03.792Z,99.39
2018-03-27T02:49:03.771Z,99.11
2018-03-27T02:50:03.617Z,99.30
2018-03-27T02:51:03.650Z,99.11
2018-03-27T02:52:03.447Z,99.11
2018-03-27T02:53:03.465Z,98.92
2018-03-27T02:54:03.307Z,99.49
2018-03-27T02:55:03.271Z,99.30
2018-03-27T02:56:03.134Z,99.01
2018-03-27T02:57:03.080Z,99.30
2018-03-27T02:58:02.956Z,99.58
2018-03-27T02:59:03.030Z,99.87
2018-03-27T03:00:02.795Z,99.68
2018-03-27T03:01:02.796Z,99.49
2018-03-27T03:02:02.627Z,98.82
2018-03-27T03:03:02.599Z,99.63
2018-03-27T03:04:02.487Z,99.53
2018-03-27T03:05:02.413Z,99.99
2018-03-27T03:06:02.315Z,99.99
2018-03-27T03:07:02.319Z,99.99
2018-03-27T03:08:02.140Z,99.99
2018-03-27T03:09:02.130Z,99.53
2018-03-27T03:10:02.005Z,99.99
2018-03-27T03:11:01.977Z,99.99
2018-03-27T03:12:01.817Z,99.99
2018-03-27T03:13:01.844Z,99.99
2018-03-27T03:14:01.658Z,99.99
2018-03-27T03:15:01.695Z,99.99
2018-03-27T03:16:01.496Z,99.99
2018-03-27T03:17:01.468Z,99.99
2018-03-27T03:18:01.312Z,99.99
2018-03-27T03:19:01.278Z,99.99
2018-03-27T03:20:01.167Z,99.99
2018-03-27T03:21:01.122Z,99.99
2018-03-27T03:22:00.983Z,99.99
2018-03-27T03:23:00.994Z,99.99
2018-03-27T03:24:00.815Z,99.99
2018-03-27T03:25:00.806Z,99.99
2018-03-27T03:26:00.671Z,99.99
2018-03-27T03:27:00.609Z,99.99
2018-03-27T03:28:00.491Z,99.99
2018-03-27T03:29:00.523Z,99.99
2018-03-27T03:30:00.419Z,99.99
2018-03-27T03:31:00.360Z,99.99
2018-03-27T03:32:00.175Z,99.99
2018-03-27T03:33:00.149Z,99.99
2018-03-27T03:34:00.001Z,99.99
2018-03-27T03:34:59.951Z,99.99
2018-03-27T03:35:59.846Z,99.99
2018-03-27T03:36:59.886Z,99.99
2018-03-27T03:37:59.662Z,99.99
2018-03-27T03:38:59.664Z,99.99
2018-03-27T03:39:59.497Z,99.99
2018-03-27T03:40:59.488Z,99.99
2018-03-27T03:41:59.352Z,99.99
2018-03-27T03:42:59.385Z,99.99
2018-03-27T03:43:59.169Z,99.99
2018-03-27T03:44:59.187Z,99.99
2018-03-27T03:45:59.028Z,99.99
2018-03-27T03:46:59.027Z,99.99
2018-03-27T03:47:58.843Z,99.99
2018-03-27T03:48:58.806Z,99.99
2018-03-27T03:49:58.778Z,99.99
2018-03-27T03:50:58.723Z,99.99
2018-03-27T03:51:58.545Z,99.99
2018-03-27T03:52:58.643Z,99.99
2018-03-27T03:53:58.344Z,99.99
2018-03-27T03:54:58.343Z,99.99
2018-03-27T03:55:58.176Z,99.99
2018-03-27T03:56:58.143Z,99.99
2018-03-27T03:57:58.037Z,99.99
2018-03-27T03:58:58.054Z,99.99
2018-03-27T03:59:57.856Z,99.99
2018-03-27T04:00:57.864Z,99.99
2018-03-27T04:01:57.695Z,99.99
2018-03-27T04:02:57.711Z,99.99
2018-03-27T04:03:57.517Z,99.99
2018-03-27T04:04:57.483Z,99.99
2018-03-27T04:05:57.345Z,99.99
2018-03-27T04:06:57.390Z,99.99
2018-03-27T04:07:57.201Z,99.99
2018-03-27T04:08:57.202Z,99.99
2018-03-27T04:09:57.128Z,99.99
2018-03-27T04:10:57.002Z,99.99
2018-03-27T04:11:56.850Z,99.99
2018-03-27T04:12:56.854Z,99.99
2018-03-27T04:13:56.694Z,99.99
2018-03-27T04:14:56.723Z,99.99
2018-03-27T04:15:56.528Z,99.99
2018-03-27T04:16:56.534Z,99.99
2018-03-27T04:17:56.357Z,99.99
2018-03-27T04:18:56.374Z,99.99
2018-03-27T04:19:56.300Z,99.99
2018-03-27T04:20:56.152Z,99.99
2018-03-27T04:21:56.043Z,99.99
2018-03-27T04:22:56.112Z,99.99
2018-03-27T04:23:55.865Z,99.99
2018-03-27T04:24:55.874Z,99.99
2018-03-27T04:25:55.700Z,99.99
2018-03-27T04:26:55.676Z,99.99
2018-03-27T04:27:55.557Z,99.99
2018-03-27T04:28:55.483Z,99.99
2018-03-27T04:29:55.365Z,99.99
2018-03-27T04:30:55.393Z,99.99
2018-03-27T04:31:55.195Z,99.99
2018-03-27T04:32:55.234Z,99.99
2018-03-27T04:33:55.037Z,99.99
2018-03-27T04:34:55.027Z,99.99
2018-03-27T04:35:54.865Z,99.99
2018-03-27T04:36:54.819Z,99.99
2018-03-27T04:37:54.728Z,99.99
2018-03-27T04:38:54.736Z,99.99
2018-03-27T04:39:54.590Z,99.99
2018-03-27T04:40:54.547Z,99.99
2018-03-27T04:41:54.371Z,99.99
2018-03-27T04:42:54.443Z,99.99
2018-03-27T04:43:54.215Z,99.99
2018-03-27T04:44:54.161Z,99.99
2018-03-27T04:45:54.033Z,99.99
2018-03-27T04:46:56.348Z,99.99
2018-03-27T04:48:18.271Z,99.99
2018-03-27T04:49:15.851Z,99.99
2018-03-27T04:49:53.787Z,99.99
2018-03-27T04:50:53.620Z,99.99
2018-03-27T04:51:53.591Z,99.99
2018-03-27T04:52:53.454Z,99.99
2018-03-27T04:53:53.429Z,99.99
2018-03-27T04:54:53.288Z,99.99
2018-03-27T04:55:53.332Z,99.99
2018-03-27T04:56:53.127Z,99.99
2018-03-27T04:57:53.123Z,99.99
2018-03-27T04:58:53.016Z,99.99
2018-03-27T04:59:53.005Z,99.99
2018-03-27T05:00:52.798Z,99.99
2018-03-27T05:01:52.839Z,99.99
2018-03-27T05:02:52.725Z,99.99
2018-03-27T05:03:52.723Z,99.99
2018-03-27T05:04:52.589Z,99.99
2018-03-27T05:05:52.514Z,99.99
2018-03-27T05:06:52.304Z,99.99
2018-03-27T05:07:52.343Z,99.99
2018-03-27T05:08:52.128Z,99.99
2018-03-27T05:09:52.109Z,99.99
2018-03-27T05:10:51.953Z,99.99
2018-03-27T05:11:51.992Z,99.99
2018-03-27T05:12:51.845Z,99.99
2018-03-27T05:13:51.792Z,99.99
2018-03-27T05:14:51.640Z,99.99
2018-03-27T05:15:51.609Z,99.99
2018-03-27T05:16:51.464Z,99.99
2018-03-27T05:17:51.509Z,99.99
2018-03-27T05:18:51.301Z,99.99
2018-03-27T05:19:51.330Z,99.99
2018-03-27T05:20:51.150Z,99.99
2018-03-27T05:21:51.133Z,99.99
2018-03-27T05:22:50.961Z,99.99
2018-03-27T05:23:50.937Z,99.99
2018-03-27T05:24:50.797Z,99.99
2018-03-27T05:25:50.774Z,99.99
2018-03-27T05:26:50.646Z,99.99
2018-03-27T05:27:50.858Z,99.99
2018-03-27T05:28:50.525Z,99.99
2018-03-27T05:29:50.999Z,99.99
2018-03-27T05:30:50.339Z,99.99
2018-03-27T05:33:32.221Z,99.99
2018-03-27T05:34:32.170Z,99.99
2018-03-27T05:35:32.029Z,99.99
2018-03-27T05:36:32.100Z,99.99
2018-03-27T05:37:31.866Z,99.99
2018-03-27T05:38:31.889Z,99.99
2018-03-27T05:39:31.705Z,99.99
2018-03-27T05:40:31.713Z,99.99
2018-03-27T05:41:31.555Z,99.99
2018-03-27T05:42:31.510Z,99.99
2018-03-27T05:43:31.366Z,99.99
2018-03-27T05:44:31.320Z,99.99
2018-03-27T05:45:31.202Z,99.99
2018-03-27T05:46:31.251Z,99.99
2018-03-27T05:47:31.033Z,99.99
2018-03-27T05:48:31.034Z,99.99
2018-03-27T05:49:30.875Z,99.99
2018-03-27T05:50:30.845Z,99.99
2018-03-27T05:51:30.717Z,99.99
2018-03-27T05:52:30.652Z,99.99
2018-03-27T05:53:30.570Z,99.99
2018-03-27T05:54:30.561Z,99.99
2018-03-27T05:55:30.367Z,99.99
2018-03-27T05:57:55.282Z,99.99
2018-03-27T05:58:55.120Z,99.99
2018-03-27T05:59:55.064Z,99.99
2018-03-27T06:00:54.947Z,99.99
2018-03-27T06:01:55.016Z,99.99
2018-03-27T06:02:54.790Z,99.99
2018-03-27T06:03:54.783Z,99.99
2018-03-27T06:04:55.290Z,99.99
2018-03-27T06:05:54.812Z,99.99
2018-03-27T06:06:54.494Z,99.99
2018-03-27T06:07:55.062Z,99.99
2018-03-27T06:08:54.302Z,99.99
2018-03-27T06:09:54.316Z,99.99
2018-03-27T06:10:54.114Z,99.99
2018-03-27T06:11:54.121Z,99.99
2018-03-27T06:12:53.976Z,99.99
2018-03-27T06:13:53.950Z,99.99
2018-03-27T06:14:53.780Z,99.99
2018-03-27T06:15:53.735Z,99.99
2018-03-27T06:16:53.638Z,99.99
2018-03-27T06:17:53.688Z,99.99
2018-03-27T06:18:53.450Z,99.99
2018-03-27T06:19:53.455Z,99.99
2018-03-27T06:20:53.302Z,99.99
2018-03-27T06:21:53.268Z,99.99
2018-03-27T06:22:53.135Z,99.99
2018-03-27T06:23:53.112Z,99.99
2018-03-27T06:24:52.971Z,99.99
2018-03-27T06:25:52.983Z,99.99
2018-03-27T06:26:52.796Z,99.99
2018-03-27T06:27:52.855Z,99.99
2018-03-27T06:28:52.619Z,99.99
2018-03-27T06:29:52.607Z,99.99
2018-03-27T06:30:52.459Z,99.99
2018-03-27T06:31:52.409Z,99.99
2018-03-27T06:32:52.307Z,99.99
2018-03-27T06:33:52.338Z,99.99
2018-03-27T06:34:52.122Z,99.99
2018-03-27T06:35:52.127Z,99.99
2018-03-27T06:36:51.959Z,99.99
2018-03-27T06:37:51.951Z,99.99
2018-03-27T06:38:51.836Z,99.99
2018-03-27T06:39:51.744Z,99.99
2018-03-27T06:40:51.641Z,99.99
2018-03-27T06:41:51.654Z,99.99
2018-03-27T06:42:51.456Z,99.99
2018-03-27T06:43:51.474Z,99.99
2018-03-27T06:44:51.311Z,99.99
2018-03-27T06:45:51.271Z,99.99
2018-03-27T06:46:51.123Z,99.99
2018-03-27T06:47:51.094Z,99.99
2018-03-27T06:48:50.982Z,99.72
2018-03-27T06:49:50.987Z,99.99
2018-03-27T06:50:50.793Z,99.39
2018-03-27T06:51:50.795Z,99.34
2018-03-27T06:52:50.658Z,99.44
2018-03-27T06:53:50.643Z,99.77
2018-03-27T06:54:50.585Z,99.58
2018-03-27T06:55:50.415Z,98.68
2018-03-27T06:56:50.307Z,97.55
2018-03-27T06:57:50.364Z,96.45
2018-03-27T06:58:50.133Z,95.22
2018-03-27T06:59:50.182Z,94.46
2018-03-27T07:00:49.967Z,93.99
2018-03-27T07:01:49.961Z,94.46
2018-03-27T07:02:49.863Z,93.75
2018-03-27T07:03:49.882Z,91.61
2018-03-27T07:04:49.668Z,91.42
2018-03-27T07:05:49.694Z,90.37
2018-03-27T07:06:49.498Z,89.80
2018-03-27T07:07:49.501Z,89.52
2018-03-27T07:08:49.358Z,88.95
2018-03-27T07:09:49.355Z,89.00
2018-03-27T07:10:49.165Z,90.56
2018-03-27T07:11:49.211Z,90.75
2018-03-27T07:12:48.994Z,89.33
2018-03-27T07:13:49.014Z,88.95
2018-03-27T07:14:48.893Z,89.14
2018-03-27T07:15:48.870Z,89.42
2018-03-27T07:16:48.681Z,89.04
2018-03-27T07:17:48.723Z,89.61
2018-03-27T07:18:48.548Z,89.66
2018-03-27T07:19:48.574Z,88.57
2018-03-27T07:20:48.376Z,89.33
2018-03-27T07:21:48.352Z,89.37
2018-03-27T07:22:48.210Z,88.61
2018-03-27T07:23:48.143Z,87.52
2018-03-27T07:24:48.043Z,85.56
2018-03-27T07:25:48.116Z,85.71
2018-03-27T07:26:47.866Z,86.66
2018-03-27T07:27:47.875Z,85.95
2018-03-27T07:28:47.720Z,85.80
2018-03-27T07:29:47.690Z,85.90
2018-03-27T07:30:47.564Z,85.47
2018-03-27T07:31:47.595Z,86.80
2018-03-27T07:32:47.383Z,87.09
2018-03-27T07:33:47.392Z,86.94
2018-03-27T07:34:47.229Z,85.57
2018-03-27T07:35:47.229Z,86.14
2018-03-27T07:36:47.067Z,85.52
2018-03-27T07:37:47.012Z,85.75
2018-03-27T07:38:46.900Z,85.04
2018-03-27T07:39:46.929Z,84.70
2018-03-27T07:40:46.789Z,84.52
2018-03-27T07:41:46.735Z,83.94
2018-03-27T07:42:46.608Z,84.66
2018-03-27T07:43:46.530Z,84.42
2018-03-27T07:44:46.437Z,84.95
2018-03-27T07:45:46.459Z,84.42
2018-03-27T07:46:46.273Z,82.90
2018-03-27T07:47:46.294Z,83.94
2018-03-27T07:48:46.106Z,83.18
2018-03-27T07:49:46.063Z,82.75
2018-03-27T07:50:45.947Z,82.51
2018-03-27T07:51:46.009Z,82.31
2018-03-27T07:52:45.798Z,81.02
2018-03-27T07:53:45.788Z,79.40
2018-03-27T07:54:45.625Z,79.46
2018-03-27T07:55:45.590Z,80.26
2018-03-27T07:56:45.485Z,80.02
2018-03-27T07:57:45.508Z,79.88
2018-03-27T07:58:45.313Z,78.92
2018-03-27T07:59:45.312Z,78.16
2018-03-27T08:00:45.175Z,77.72
2018-03-27T08:01:45.149Z,77.78
2018-03-27T08:02:45.014Z,78.39
2018-03-27T08:03:45.038Z,76.96
2018-03-27T08:04:44.830Z,75.24
2018-03-27T08:05:44.844Z,74.32
2018-03-27T08:06:44.680Z,75.59
2018-03-27T08:07:44.677Z,77.15
2018-03-27T08:08:44.527Z,76.39
2018-03-27T08:09:44.575Z,76.16
2018-03-27T08:10:44.374Z,75.91
2018-03-27T08:11:44.382Z,75.66
2018-03-27T08:12:44.229Z,74.77
2018-03-27T08:13:44.176Z,76.16
2018-03-27T08:14:44.046Z,77.56
2018-03-27T08:15:44.093Z,80.42
2018-03-27T08:16:43.896Z,81.66
2018-03-27T08:17:43.928Z,81.79
2018-03-27T08:18:43.735Z,81.66
2018-03-27T08:19:43.697Z,81.71
2018-03-27T08:20:43.707Z,83.14
2018-03-27T08:21:43.606Z,83.86
2018-03-27T08:22:43.446Z,85.00
2018-03-27T08:23:43.506Z,84.76
2018-03-27T08:24:43.269Z,83.52
2018-03-27T08:25:43.230Z,84.09
2018-03-27T08:26:43.097Z,83.86
2018-03-27T08:27:43.185Z,84.14
2018-03-27T08:28:42.993Z,84.43
2018-03-27T08:29:43.036Z,83.90
2018-03-27T08:30:42.799Z,83.71
2018-03-27T08:31:42.760Z,83.62
2018-03-27T08:32:42.619Z,83.14
2018-03-27T08:33:42.712Z,82.70
2018-03-27T08:34:42.467Z,82.48
2018-03-27T08:35:42.488Z,82.57
2018-03-27T08:36:42.303Z,82.14
2018-03-27T08:37:42.278Z,81.66
2018-03-27T08:38:42.204Z,82.48
2018-03-27T08:39:42.197Z,82.23
2018-03-27T08:40:42.054Z,81.56
2018-03-27T08:41:42.001Z,80.12
2018-03-27T08:42:41.828Z,76.86
2018-03-27T08:43:41.856Z,77.11
2018-03-27T08:44:41.679Z,76.82
2018-03-27T08:45:41.651Z,76.16
2018-03-27T08:46:41.520Z,76.03
2018-03-27T08:47:41.524Z,76.64
2018-03-27T08:48:41.374Z,76.37
2018-03-27T08:49:41.343Z,78.78
2018-03-27T08:50:41.229Z,78.03
2018-03-27T08:51:41.156Z,78.41
2018-03-27T08:52:41.053Z,78.41
2018-03-27T08:53:41.083Z,76.73
2018-03-27T08:54:40.880Z,76.25
2018-03-27T08:55:40.875Z,76.65
2018-03-27T08:56:40.762Z,76.12
2018-03-27T08:57:40.675Z,75.64
2018-03-27T08:58:40.563Z,74.79
2018-03-27T08:59:40.697Z,74.82
2018-03-27T09:00:40.432Z,74.63
2018-03-27T09:01:40.442Z,74.12
2018-03-27T09:02:40.236Z,73.39
2018-03-27T09:03:40.232Z,72.72
2018-03-27T09:04:40.114Z,72.92
2018-03-27T09:05:40.113Z,70.26
2018-03-27T09:06:39.958Z,66.35
2018-03-27T09:09:21.734Z,61.98
2018-03-27T09:10:21.714Z,60.26
2018-03-27T09:11:21.590Z,60.29
2018-03-27T09:12:21.658Z,59.59
2018-03-27T09:13:21.440Z,62.05
2018-03-27T09:14:21.428Z,62.52
2018-03-27T09:15:21.286Z,62.11
2018-03-27T09:16:21.238Z,63.45
2018-03-27T09:17:21.122Z,63.73
2018-03-27T09:18:21.152Z,64.21
2018-03-27T09:19:20.955Z,64.28
2018-03-27T09:20:21.051Z,65.86
2018-03-27T09:21:20.803Z,67.74
2018-03-27T09:22:20.760Z,69.07
2018-03-27T09:23:20.659Z,69.54
2018-03-27T09:24:20.674Z,70.02
2018-03-27T09:25:20.510Z,70.18
2018-03-27T09:26:20.490Z,70.94
2018-03-27T09:27:20.344Z,71.51
2018-03-27T09:28:20.305Z,70.78
2018-03-27T09:29:20.173Z,68.12
2018-03-27T09:30:20.239Z,68.12
2018-03-27T09:31:20.021Z,64.91
2018-03-27T09:32:20.019Z,64.43
2018-03-27T09:33:19.926Z,64.97
2018-03-27T09:34:19.823Z,65.16
2018-03-27T09:35:19.726Z,65.45
2018-03-27T09:36:19.736Z,65.83
2018-03-27T09:37:19.550Z,66.56
2018-03-27T09:38:19.584Z,67.03
2018-03-27T09:39:19.384Z,67.22
2018-03-27T09:40:19.412Z,68.75
2018-03-27T09:41:19.289Z,68.27
2018-03-27T09:42:19.272Z,68.50
2018-03-27T09:43:19.073Z,68.46
2018-03-27T09:44:19.210Z,68.37
2018-03-27T09:45:18.936Z,67.41
2018-03-27T09:46:20.050Z,66.85
2018-03-27T09:47:18.808Z,67.13
2018-03-27T09:48:19.776Z,67.89
2018-03-27T09:49:18.600Z,66.46
2018-03-27T09:50:18.598Z,66.18
2018-03-27T09:51:18.459Z,66.94
2018-03-27T09:52:18.460Z,67.13
2018-03-27T09:53:18.365Z,67.03
2018-03-27T09:54:18.345Z,66.66
2018-03-27T09:55:18.154Z,66.56
2018-03-27T09:56:18.170Z,66.08
2018-03-27T09:57:17.998Z,66.66
2018-03-27T09:58:17.972Z,65.99
2018-03-27T09:59:17.928Z,65.89
2018-03-27T10:00:17.855Z,64.94
2018-03-27T10:01:17.652Z,64.47
2018-03-27T10:02:17.695Z,63.51
2018-03-27T10:03:17.492Z,63.42
2018-03-27T10:04:17.473Z,63.70
2018-03-27T10:05:17.326Z,64.56
2018-03-27T10:06:17.377Z,64.28
2018-03-27T10:07:17.184Z,63.51
2018-03-27T10:08:17.187Z,63.04
2018-03-27T10:09:17.024Z,62.56
2018-03-27T10:10:16.995Z,62.65
2018-03-27T10:11:16.841Z,62.46
2018-03-27T10:12:16.830Z,61.99
2018-03-27T10:13:16.686Z,61.70
2018-03-27T10:14:16.732Z,61.61
2018-03-27T10:15:16.521Z,61.51
2018-03-27T10:16:16.572Z,62.08
2018-03-27T10:17:16.394Z,62.37
2018-03-27T10:18:16.367Z,62.65
2018-03-27T10:19:16.233Z,62.27
2018-03-27T10:20:16.245Z,61.61
2018-03-27T10:21:16.047Z,61.13
2018-03-27T10:22:16.052Z,61.80
2018-03-27T10:23:15.897Z,60.59
2018-03-27T10:24:15.869Z,60.37
2018-03-27T10:25:15.723Z,60.59
2018-03-27T10:26:15.768Z,60.08
2018-03-27T10:27:15.589Z,59.92
2018-03-27T10:28:15.612Z,59.70
2018-03-27T10:29:15.524Z,59.54
2018-03-27T10:30:15.388Z,59.64
2018-03-27T10:31:15.240Z,59.45
2018-03-27T10:32:15.337Z,59.16
2018-03-27T10:33:15.080Z,58.62
2018-03-27T10:34:15.125Z,58.43
2018-03-27T10:35:14.925Z,58.81
2018-03-27T10:36:14.901Z,58.75
2018-03-27T10:37:14.771Z,58.52
2018-03-27T10:38:14.816Z,57.60
2018-03-27T10:39:14.632Z,58.07
2018-03-27T10:40:14.629Z,56.38
2018-03-27T10:41:14.459Z,55.65
2018-03-27T10:42:14.439Z,55.40
2018-03-27T10:43:14.289Z,54.06
2018-03-27T10:44:14.289Z,52.87
2018-03-27T10:45:14.135Z,52.26
2018-03-27T10:46:14.152Z,52.62
2018-03-27T10:47:13.980Z,52.88
2018-03-27T10:48:13.979Z,54.32
2018-03-27T10:49:13.953Z,54.79
2018-03-27T10:50:13.791Z,54.06
2018-03-27T10:51:13.657Z,53.39
2018-03-27T10:52:13.700Z,54.13
2018-03-27T10:53:13.506Z,55.15
2018-03-27T10:54:13.538Z,54.89
2018-03-27T10:55:13.355Z,54.32
2018-03-27T10:56:13.397Z,53.03
2018-03-27T10:57:13.214Z,52.62
2018-03-27T10:59:55.287Z,54.00
2018-03-27T11:00:55.315Z,54.50
2018-03-27T11:01:55.117Z,54.19
2018-03-27T11:02:55.156Z,54.00
2018-03-27T11:03:54.983Z,54.00
2018-03-27T11:04:54.972Z,54.10
2018-03-27T11:05:54.792Z,54.29
2018-03-27T11:06:54.831Z,53.27
2018-03-27T11:07:54.642Z,52.72
2018-03-27T11:08:54.655Z,51.45
2018-03-27T11:09:54.523Z,52.00
2018-03-27T11:10:54.457Z,52.28
2018-03-27T11:11:54.336Z,53.41
2018-03-27T11:12:54.376Z,53.69
2018-03-27T11:13:54.191Z,53.59
2018-03-27T11:14:54.201Z,53.31
2018-03-27T11:15:54.035Z,53.21
2018-03-27T11:16:54.018Z,53.81
2018-03-27T11:17:53.862Z,53.21
2018-03-27T11:18:53.897Z,53.41
2018-03-27T11:19:53.732Z,54.90
2018-03-27T11:20:53.728Z,55.76
2018-03-27T11:21:53.670Z,56.04
2018-03-27T11:22:53.499Z,56.33
2018-03-27T11:23:53.395Z,56.04
2018-03-27T11:24:53.424Z,56.33
2018-03-27T11:25:53.241Z,56.52
2018-03-27T11:26:53.254Z,57.00
2018-03-27T11:27:53.077Z,56.74
2018-03-27T11:28:53.045Z,56.26
2018-03-27T11:29:52.921Z,56.65
2018-03-27T11:30:52.978Z,55.79
2018-03-27T11:31:52.800Z,56.84
2018-03-27T11:32:52.767Z,56.81
2018-03-27T11:33:52.597Z,57.86
2018-03-27T11:34:52.593Z,57.57
2018-03-27T11:35:52.461Z,57.67
2018-03-27T11:36:52.517Z,57.57
2018-03-27T11:37:52.303Z,57.50
2018-03-27T11:38:52.278Z,57.50
2018-03-27T11:39:52.144Z,57.22
2018-03-27T11:40:52.091Z,57.03
2018-03-27T11:41:51.988Z,57.12
2018-03-27T11:42:52.039Z,56.48
2018-03-27T11:43:51.827Z,56.10
2018-03-27T11:44:51.811Z,54.15
2018-03-27T11:45:51.652Z,52.77
2018-03-27T11:46:51.625Z,51.79
2018-03-27T11:47:51.518Z,51.72
2018-03-27T11:48:51.537Z,51.34
2018-03-27T11:49:51.337Z,49.48
2018-03-27T11:50:51.338Z,49.55
2018-03-27T11:51:51.252Z,49.16
2018-03-27T11:52:51.142Z,49.29
2018-03-27T11:53:51.022Z,48.47
2018-03-27T11:54:51.067Z,49.33
2018-03-27T11:55:50.974Z,49.80
2018-03-27T11:56:50.860Z,48.97
2018-03-27T11:57:50.809Z,48.39
2018-03-27T11:58:50.668Z,48.39
2018-03-27T11:59:50.560Z,48.97
2018-03-27T12:00:50.613Z,48.95
2018-03-27T12:01:50.422Z,50.35
2018-03-27T12:02:50.417Z,51.35
2018-03-27T12:03:50.248Z,53.14
2018-03-27T12:04:50.315Z,54.38
2018-03-27T12:05:50.095Z,55.05
2018-03-27T12:06:50.143Z,55.34
2018-03-27T12:07:49.958Z,55.72
2018-03-27T12:08:49.934Z,55.91
2018-03-27T12:09:49.789Z,56.29
2018-03-27T12:10:49.835Z,56.07
2018-03-27T12:11:49.626Z,57.03
2018-03-27T12:12:49.668Z,56.84
2018-03-27T12:13:49.591Z,57.22
2018-03-27T12:14:49.451Z,57.22
2018-03-27T12:15:49.333Z,56.93
2018-03-27T12:16:49.410Z,57.43
2018-03-27T12:17:49.174Z,57.53
2018-03-27T12:18:49.160Z,57.50
2018-03-27T12:19:49.004Z,58.26
2018-03-27T12:20:48.967Z,58.65
2018-03-27T12:21:48.870Z,58.55
2018-03-27T12:22:48.947Z,58.46
2018-03-27T12:23:48.718Z,58.94
2018-03-27T12:24:48.700Z,59.03
2018-03-27T12:25:48.522Z,59.12
2018-03-27T12:26:48.501Z,59.03
2018-03-27T12:27:48.391Z,59.22
2018-03-27T12:28:48.449Z,59.12
2018-03-27T12:29:48.221Z,59.60
2018-03-27T12:32:30.304Z,59.03
2018-03-27T12:33:30.321Z,58.58
2018-03-27T12:34:30.152Z,58.68
2018-03-27T12:35:30.132Z,58.75
2018-03-27T12:36:29.975Z,59.34
2018-03-27T12:37:29.945Z,59.16
2018-03-27T12:38:29.825Z,59.06
2018-03-27T12:39:29.889Z,59.06
2018-03-27T12:40:29.660Z,59.16
2018-03-27T12:41:29.703Z,59.44
2018-03-27T12:42:29.504Z,58.80
2018-03-27T12:43:30.363Z,58.68
2018-03-27T12:44:29.362Z,58.58
2018-03-27T12:45:29.380Z,58.51
2018-03-27T12:46:29.188Z,58.87
2018-03-27T12:47:29.190Z,58.48
2018-03-27T12:48:29.032Z,59.16
2018-03-27T12:49:29.065Z,59.06
2018-03-27T12:50:28.872Z,59.73
2018-03-27T12:51:28.903Z,59.73
2018-03-27T12:52:28.709Z,59.73
2018-03-27T12:53:28.723Z,59.92
2018-03-27T12:54:28.579Z,59.63
2018-03-27T12:55:28.516Z,59.82
2018-03-27T12:56:28.393Z,60.39
2018-03-27T12:57:28.478Z,60.21
2018-03-27T12:58:28.244Z,60.02
2018-03-27T12:59:28.236Z,60.36
2018-03-27T13:00:28.179Z,60.68
2018-03-27T13:01:28.058Z,61.04